createdAt,value
2023-05-12T00:00:05.370Z,27.28
2023-05-12T00:01:05.352Z,27.25
2023-05-12T00:02:05.338Z,27.27
2023-05-12T00:03:05.408Z,27.26
2023-05-12T00:04:05.435Z,27.25
2023-05-12T00:05:05.310Z,27.25
2023-05-12T00:06:05.292Z,27.25
2023-05-12T00:07:05.257Z,27.27
2023-05-12T00:08:05.260Z,27.25
2023-05-12T00:09:05.241Z,27.30
2023-05-12T00:10:05.233Z,27.30
2023-05-12T00:11:05.226Z,27.28
2023-05-12T00:12:05.185Z,27.31
2023-05-12T00:13:05.187Z,27.25
2023-05-12T00:14:05.229Z,27.28
2023-05-12T00:15:05.292Z,27.28
2023-05-12T00:16:05.370Z,27.26
2023-05-12T00:17:05.373Z,27.31
2023-05-12T00:18:05.433Z,27.26
2023-05-12T00:19:05.491Z,27.28
2023-05-12T00:20:05.371Z,27.28
2023-05-12T00:21:05.374Z,27.31
2023-05-12T00:22:05.352Z,27.30
2023-05-12T00:23:05.359Z,27.28
2023-05-12T00:24:05.348Z,27.29
2023-05-12T00:25:05.312Z,27.31
2023-05-12T00:26:05.309Z,27.30
2023-05-12T00:27:05.398Z,27.28
2023-05-12T00:28:05.279Z,27.32
2023-05-12T00:29:05.284Z,27.28
2023-05-12T00:30:05.258Z,27.34
2023-05-12T00:31:05.320Z,27.31
2023-05-12T00:32:05.352Z,27.28
2023-05-12T00:33:05.246Z,27.31
2023-05-12T00:34:05.228Z,27.31
2023-05-12T00:35:05.196Z,27.29
2023-05-12T00:36:05.194Z,27.31
2023-05-12T00:37:05.197Z,27.30
2023-05-12T00:38:05.236Z,27.34
2023-05-12T00:39:05.235Z,27.30
2023-05-12T00:40:05.286Z,27.37
2023-05-12T00:41:05.237Z,27.32
2023-05-12T00:42:05.203Z,27.28
2023-05-12T00:43:05.215Z,27.32
2023-05-12T00:44:05.196Z,27.34
2023-05-12T00:45:05.186Z,27.34
2023-05-12T00:46:05.167Z,27.35
2023-05-12T00:47:05.140Z,27.35
2023-05-12T00:48:05.197Z,27.32
2023-05-12T00:49:05.113Z,27.37
2023-05-12T00:50:05.175Z,27.33
2023-05-12T00:51:05.089Z,27.35
2023-05-12T00:52:05.082Z,27.35
2023-05-12T00:53:05.086Z,27.34
2023-05-12T00:54:05.056Z,27.34
2023-05-12T00:55:05.064Z,27.33
2023-05-12T00:56:05.031Z,27.35
2023-05-12T00:57:05.021Z,27.35
2023-05-12T00:58:05.003Z,27.37
2023-05-12T00:59:05.000Z,27.35
2023-05-12T01:00:05.176Z,27.37
2023-05-12T01:01:05.150Z,27.35
2023-05-12T01:02:05.140Z,27.32
2023-05-12T01:04:24.644Z,27.39
2023-05-12T01:05:24.627Z,27.41
2023-05-12T01:06:24.650Z,27.35
2023-05-12T01:07:24.628Z,27.38
2023-05-12T01:08:24.639Z,27.39
2023-05-12T01:09:24.629Z,27.35
2023-05-12T01:10:24.634Z,27.39
2023-05-12T01:11:24.673Z,27.39
2023-05-12T01:12:24.641Z,27.38
2023-05-12T01:13:24.635Z,27.35
2023-05-12T01:14:24.634Z,27.39
2023-05-12T01:15:24.629Z,27.35
2023-05-12T01:16:24.646Z,27.42
2023-05-12T01:17:24.686Z,27.35
2023-05-12T01:18:24.799Z,27.38
2023-05-12T01:19:24.643Z,27.39
2023-05-12T01:20:24.638Z,27.38
2023-05-12T01:21:24.649Z,27.41
2023-05-12T01:22:24.649Z,27.37
2023-05-12T01:23:24.623Z,27.37
2023-05-12T01:24:24.645Z,27.41
2023-05-12T01:25:24.615Z,27.35
2023-05-12T01:26:24.643Z,27.39
2023-05-12T01:27:24.624Z,27.38
2023-05-12T01:28:24.624Z,27.39
2023-05-12T01:29:24.624Z,27.39
2023-05-12T01:30:24.821Z,27.39
2023-05-12T01:31:24.656Z,27.39
2023-05-12T01:32:24.665Z,27.39
2023-05-12T01:33:24.634Z,27.42
2023-05-12T01:34:24.633Z,27.35
2023-05-12T01:35:24.633Z,27.42
2023-05-12T01:36:24.642Z,27.38
2023-05-12T01:37:24.633Z,27.39
2023-05-12T01:38:24.636Z,27.42
2023-05-12T01:39:24.623Z,27.44
2023-05-12T01:40:24.641Z,27.41
2023-05-12T01:41:24.635Z,27.41
2023-05-12T01:42:24.647Z,27.44
2023-05-12T01:43:24.644Z,27.41
2023-05-12T01:44:24.641Z,27.42
2023-05-12T01:45:24.633Z,27.42
2023-05-12T01:46:25.093Z,27.42
2023-05-12T01:47:24.663Z,27.41
2023-05-12T01:48:24.648Z,27.42
2023-05-12T01:49:24.649Z,27.42
2023-05-12T01:50:24.655Z,27.36
2023-05-12T01:51:24.650Z,27.45
2023-05-12T01:52:24.649Z,27.42
2023-05-12T01:53:24.652Z,27.38
2023-05-12T01:54:24.649Z,27.37
2023-05-12T01:55:24.661Z,27.41
2023-05-12T01:56:24.664Z,27.41
2023-05-12T01:57:24.678Z,27.42
2023-05-12T01:58:24.680Z,27.45
2023-05-12T01:59:24.761Z,27.42
2023-05-12T02:00:24.685Z,27.44
2023-05-12T02:01:24.740Z,27.38
2023-05-12T02:02:24.768Z,27.47
2023-05-12T02:03:24.820Z,27.48
2023-05-12T02:04:24.708Z,27.41
2023-05-12T02:05:24.707Z,27.44
2023-05-12T02:06:24.741Z,27.47
2023-05-12T02:07:24.788Z,27.39
2023-05-12T02:08:24.847Z,27.39
2023-05-12T02:09:24.886Z,27.45
2023-05-12T02:10:24.955Z,27.45
2023-05-12T02:11:25.000Z,27.45
2023-05-12T02:12:25.020Z,27.48
2023-05-12T02:13:25.092Z,27.39
2023-05-12T02:14:25.184Z,27.47
2023-05-12T02:15:25.250Z,27.45
2023-05-12T02:16:25.381Z,27.44
2023-05-12T02:17:25.420Z,27.42
2023-05-12T02:18:25.489Z,27.44
2023-05-12T02:19:25.511Z,27.45
2023-05-12T02:20:25.579Z,27.47
2023-05-12T02:21:25.653Z,27.41
2023-05-12T02:22:25.721Z,27.48
2023-05-12T02:23:25.766Z,27.49
2023-05-12T02:24:25.824Z,27.48
2023-05-12T02:25:25.888Z,27.48
2023-05-12T02:26:25.912Z,27.44
2023-05-12T02:27:25.913Z,27.42
2023-05-12T02:28:25.955Z,27.49
2023-05-12T02:29:25.984Z,27.51
2023-05-12T02:30:26.011Z,27.47
2023-05-12T02:31:26.065Z,27.48
2023-05-12T02:32:26.105Z,27.45
2023-05-12T02:33:26.090Z,27.42
2023-05-12T02:34:26.136Z,27.53
2023-05-12T02:35:26.148Z,27.48
2023-05-12T02:36:26.189Z,27.45
2023-05-12T02:37:26.193Z,27.48
2023-05-12T02:38:26.244Z,27.44
2023-05-12T02:39:26.236Z,27.42
2023-05-12T02:40:26.295Z,27.42
2023-05-12T02:41:26.379Z,27.45
2023-05-12T02:42:26.436Z,27.49
2023-05-12T02:43:26.477Z,27.51
2023-05-12T02:44:26.518Z,27.47
2023-05-12T02:45:26.558Z,27.49
2023-05-12T02:46:26.608Z,27.48
2023-05-12T02:47:26.659Z,27.48
2023-05-12T02:48:26.695Z,27.49
2023-05-12T02:49:26.728Z,27.48
2023-05-12T02:50:26.743Z,27.49
2023-05-12T02:51:26.808Z,27.47
2023-05-12T02:52:26.836Z,27.44
2023-05-12T02:53:26.881Z,27.49
2023-05-12T02:54:26.946Z,27.45
2023-05-12T02:55:26.952Z,27.47
2023-05-12T02:56:27.007Z,27.49
2023-05-12T02:57:27.055Z,27.48
2023-05-12T02:58:27.130Z,27.49
2023-05-12T02:59:27.177Z,27.47
2023-05-12T03:00:27.230Z,27.47
2023-05-12T03:01:27.321Z,27.45
2023-05-12T03:02:27.366Z,27.40
2023-05-12T03:03:27.445Z,27.31
2023-05-12T03:04:27.405Z,27.15
2023-05-12T03:05:27.464Z,26.44
2023-05-12T03:06:27.507Z,26.39
2023-05-12T03:07:27.533Z,26.20
2023-05-12T03:08:27.542Z,25.94
2023-05-12T03:09:27.546Z,25.83
2023-05-12T03:10:27.565Z,25.74
2023-05-12T03:11:27.578Z,25.66
2023-05-12T03:12:27.649Z,25.60
2023-05-12T03:13:27.765Z,25.48
2023-05-12T03:14:27.860Z,25.43
2023-05-12T03:15:27.905Z,25.37
2023-05-12T03:16:27.955Z,25.22
2023-05-12T03:17:27.979Z,25.22
2023-05-12T03:18:27.992Z,25.29
2023-05-12T03:19:28.010Z,25.20
2023-05-12T03:20:28.054Z,25.11
2023-05-12T03:21:28.078Z,25.08
2023-05-12T03:22:28.117Z,25.06
2023-05-12T03:23:28.161Z,25.03
2023-05-12T03:24:28.168Z,25.11
2023-05-12T03:25:28.185Z,24.96
2023-05-12T03:26:28.186Z,25.00
2023-05-12T03:27:28.191Z,25.00
2023-05-12T03:28:28.189Z,24.91
2023-05-12T03:29:28.202Z,24.79
2023-05-12T03:30:28.228Z,24.92
2023-05-12T03:31:28.261Z,24.86
2023-05-12T03:32:28.253Z,24.84
2023-05-12T03:33:28.231Z,24.86
2023-05-12T03:34:28.233Z,24.77
2023-05-12T03:35:28.262Z,24.83
2023-05-12T03:36:28.270Z,24.74
2023-05-12T03:37:28.319Z,24.68
2023-05-12T03:38:28.376Z,24.71
2023-05-12T03:39:28.447Z,24.81
2023-05-12T03:40:28.486Z,24.78
2023-05-12T03:41:28.556Z,24.84
2023-05-12T03:42:28.618Z,24.76
2023-05-12T03:43:28.675Z,24.70
2023-05-12T03:44:28.734Z,24.72
2023-05-12T03:45:28.796Z,24.76
2023-05-12T03:46:28.917Z,24.65
2023-05-12T03:47:29.398Z,24.67
2023-05-12T03:48:29.061Z,24.79
2023-05-12T03:49:29.085Z,24.64
2023-05-12T03:50:29.145Z,24.65
2023-05-12T03:51:29.236Z,24.58
2023-05-12T03:52:29.287Z,24.67
2023-05-12T03:53:29.374Z,24.68
2023-05-12T03:54:29.456Z,24.69
2023-05-12T03:55:29.567Z,24.71
2023-05-12T03:56:29.620Z,24.69
2023-05-12T03:57:29.677Z,24.59
2023-05-12T03:58:29.772Z,24.66
2023-05-12T03:59:29.842Z,24.73
2023-05-12T04:00:29.907Z,24.72
2023-05-12T04:01:29.988Z,24.60
2023-05-12T04:02:30.116Z,24.64
2023-05-12T04:03:30.216Z,24.61
2023-05-12T04:04:30.196Z,24.61
2023-05-12T04:05:30.264Z,24.68
2023-05-12T04:06:30.332Z,24.62
2023-05-12T04:07:30.400Z,24.74
2023-05-12T04:08:30.479Z,24.73
2023-05-12T04:09:30.543Z,24.59
2023-05-12T04:10:30.589Z,24.68
2023-05-12T04:11:30.648Z,24.71
2023-05-12T04:12:30.742Z,24.65
2023-05-12T04:13:30.770Z,24.56
2023-05-12T04:14:41.764Z,24.65
2023-05-12T04:15:31.872Z,24.63
2023-05-12T04:16:30.905Z,24.74
2023-05-12T04:17:30.915Z,24.68
2023-05-12T04:18:30.936Z,24.66
2023-05-12T04:19:30.935Z,24.69
2023-05-12T04:20:30.947Z,24.67
2023-05-12T04:21:30.969Z,24.69
2023-05-12T04:22:30.978Z,24.61
2023-05-12T04:23:31.042Z,24.75
2023-05-12T04:24:31.099Z,24.69
2023-05-12T04:25:31.146Z,24.70
2023-05-12T04:26:31.277Z,24.76
2023-05-12T04:27:31.282Z,24.75
2023-05-12T04:28:31.296Z,24.75
2023-05-12T04:29:31.326Z,24.70
2023-05-12T04:30:31.347Z,24.70
2023-05-12T04:31:31.393Z,24.71
2023-05-12T04:32:31.462Z,24.77
2023-05-12T04:33:31.441Z,24.58
2023-05-12T04:34:31.479Z,24.85
2023-05-12T04:35:31.474Z,24.77
2023-05-12T04:36:31.505Z,24.68
2023-05-12T04:37:31.527Z,24.67
2023-05-12T04:38:31.549Z,24.74
2023-05-12T04:39:31.570Z,24.76
2023-05-12T04:40:34.040Z,24.80
2023-05-12T04:41:31.614Z,24.76
2023-05-12T04:42:31.619Z,24.76
2023-05-12T04:44:31.683Z,24.81
2023-05-12T04:45:31.664Z,24.83
2023-05-12T04:46:31.741Z,24.72
2023-05-12T04:47:31.781Z,24.86
2023-05-12T04:48:31.710Z,24.84
2023-05-12T04:49:31.719Z,24.81
2023-05-12T04:50:31.729Z,24.81
2023-05-12T04:51:31.738Z,24.86
2023-05-12T04:52:31.756Z,24.85
2023-05-12T04:53:31.774Z,24.81
2023-05-12T04:54:31.775Z,24.87
2023-05-12T04:55:31.787Z,24.86
2023-05-12T04:56:31.804Z,24.88
2023-05-12T04:57:31.824Z,24.96
2023-05-12T04:58:31.828Z,24.93
2023-05-12T04:59:31.843Z,24.91
2023-05-12T05:00:31.853Z,24.91
2023-05-12T05:01:31.898Z,24.84
2023-05-12T05:02:31.953Z,24.95
2023-05-12T05:03:32.009Z,24.88
2023-05-12T05:04:31.891Z,24.91
2023-05-12T05:05:31.918Z,24.81
2023-05-12T05:06:31.916Z,24.90
2023-05-12T05:07:31.938Z,24.89
2023-05-12T05:08:31.939Z,24.91
2023-05-12T05:09:33.411Z,24.89
2023-05-12T05:10:31.974Z,24.97
2023-05-12T05:11:31.987Z,24.98
2023-05-12T05:12:32.016Z,24.84
2023-05-12T05:13:32.024Z,24.89
2023-05-12T05:14:32.024Z,24.86
2023-05-12T05:15:32.077Z,24.95
2023-05-12T05:16:32.085Z,24.96
2023-05-12T05:17:32.101Z,24.97
2023-05-12T05:18:32.110Z,24.94
2023-05-12T05:20:32.471Z,25.00
2023-05-12T05:21:32.098Z,25.00
2023-05-12T05:22:32.127Z,25.07
2023-05-12T05:23:32.130Z,25.01
2023-05-12T05:24:32.151Z,24.98
2023-05-12T05:25:32.168Z,25.04
2023-05-12T05:26:32.171Z,25.01
2023-05-12T05:27:32.211Z,25.05
2023-05-12T05:28:32.257Z,25.08
2023-05-12T05:29:32.217Z,25.05
2023-05-12T05:30:32.298Z,25.20
2023-05-12T05:31:32.347Z,25.29
2023-05-12T05:32:32.322Z,24.75
2023-05-12T05:33:32.279Z,25.58
2023-05-12T05:34:32.334Z,25.59
2023-05-12T05:35:32.364Z,26.09
2023-05-12T05:36:32.317Z,26.21
2023-05-12T05:37:32.337Z,26.27
2023-05-12T05:38:32.363Z,26.30
2023-05-12T05:39:32.389Z,26.55
2023-05-12T05:40:41.540Z,26.95
2023-05-12T05:41:33.415Z,27.35
2023-05-12T05:42:32.469Z,27.50
2023-05-12T05:43:32.478Z,27.72
2023-05-12T05:44:32.800Z,27.98
2023-05-12T05:45:32.483Z,27.82
2023-05-12T05:46:32.509Z,27.64
2023-05-12T05:47:32.536Z,28.25
2023-05-12T05:48:32.497Z,28.35
2023-05-12T05:49:32.570Z,28.00
2023-05-12T05:50:32.523Z,28.49
2023-05-12T05:51:32.552Z,28.61
2023-05-12T05:52:32.559Z,28.48
2023-05-12T05:53:32.562Z,28.32
2023-05-12T05:54:32.557Z,27.86
2023-05-12T05:55:32.588Z,26.72
2023-05-12T05:56:32.597Z,26.15
2023-05-12T05:57:32.609Z,25.73
2023-05-12T05:58:32.599Z,25.65
2023-05-12T05:59:32.634Z,25.52
2023-05-12T06:00:32.659Z,25.51
2023-05-12T06:01:32.738Z,25.44
2023-05-12T06:02:32.986Z,25.80
2023-05-12T06:03:32.744Z,25.96
2023-05-12T06:04:32.947Z,26.09
2023-05-12T06:05:32.720Z,26.47
2023-05-12T06:06:32.740Z,26.56
2023-05-12T06:07:32.759Z,26.91
2023-05-12T06:08:32.752Z,26.95
2023-05-12T06:09:32.782Z,27.01
2023-05-12T06:10:32.787Z,27.10
2023-05-12T06:11:32.820Z,27.25
2023-05-12T06:12:32.830Z,27.13
2023-05-12T06:13:32.846Z,27.08
2023-05-12T06:14:32.844Z,27.37
2023-05-12T06:15:32.858Z,27.38
2023-05-12T06:16:32.921Z,27.48
2023-05-12T06:17:32.930Z,27.71
2023-05-12T06:18:32.925Z,27.68
2023-05-12T06:19:32.876Z,27.69
2023-05-12T06:20:32.887Z,27.61
2023-05-12T06:21:32.877Z,27.60
2023-05-12T06:22:32.880Z,27.69
2023-05-12T06:23:32.890Z,27.72
2023-05-12T06:24:32.888Z,27.75
2023-05-12T06:25:32.892Z,27.81
2023-05-12T06:26:32.899Z,27.81
2023-05-12T06:27:32.922Z,27.82
2023-05-12T06:28:32.894Z,27.91
2023-05-12T06:29:32.908Z,27.97
2023-05-12T06:30:32.911Z,27.94
2023-05-12T06:31:33.095Z,27.88
2023-05-12T06:32:33.088Z,28.03
2023-05-12T06:33:33.145Z,28.27
2023-05-12T06:34:33.201Z,28.09
2023-05-12T06:35:33.278Z,28.11
2023-05-12T06:36:33.318Z,28.18
2023-05-12T06:37:33.386Z,28.42
2023-05-12T06:38:33.453Z,28.53
2023-05-12T06:39:33.495Z,28.47
2023-05-12T06:40:33.558Z,28.47
2023-05-12T06:41:33.628Z,28.89
2023-05-12T06:42:33.666Z,27.74
2023-05-12T06:43:33.732Z,27.96
2023-05-12T06:44:33.779Z,27.51
2023-05-12T06:45:33.854Z,26.99
2023-05-12T06:46:33.997Z,26.00
2023-05-12T06:47:34.043Z,25.77
2023-05-12T06:48:34.084Z,25.67
2023-05-12T06:49:34.103Z,25.54
2023-05-12T06:50:34.159Z,25.84
2023-05-12T06:51:34.139Z,25.91
2023-05-12T06:52:34.149Z,25.60
2023-05-12T06:53:34.182Z,25.64
2023-05-12T06:54:34.180Z,25.75
2023-05-12T06:55:34.200Z,25.72
2023-05-12T06:56:34.217Z,25.75
2023-05-12T06:57:34.240Z,25.71
2023-05-12T06:58:34.248Z,25.62
2023-05-12T06:59:34.284Z,25.41
2023-05-12T07:00:34.295Z,25.65
2023-05-12T07:01:34.375Z,25.48
2023-05-12T07:02:34.377Z,25.42
2023-05-12T07:03:34.384Z,25.98
2023-05-12T07:04:34.396Z,25.79
2023-05-12T07:05:34.465Z,25.56
2023-05-12T07:06:34.465Z,25.62
2023-05-12T07:07:34.506Z,25.54
2023-05-12T07:08:34.507Z,25.35
2023-05-12T07:09:34.484Z,25.30
2023-05-12T07:10:34.491Z,25.38
2023-05-12T07:11:34.504Z,25.48
2023-05-12T07:12:34.509Z,25.30
2023-05-12T07:13:34.552Z,25.30
2023-05-12T07:14:34.535Z,25.14
2023-05-12T07:15:34.561Z,25.18
2023-05-12T07:16:34.587Z,25.30
2023-05-12T07:17:34.618Z,25.32
2023-05-12T07:18:34.608Z,25.26
2023-05-12T07:19:34.603Z,25.46
2023-05-12T07:20:34.631Z,25.32
2023-05-12T07:21:34.622Z,25.43
2023-05-12T07:22:36.032Z,25.31
2023-05-12T07:23:34.664Z,25.29
2023-05-12T07:24:34.661Z,25.17
2023-05-12T07:25:34.724Z,25.24
2023-05-12T07:26:34.689Z,25.22
2023-05-12T07:27:34.753Z,25.49
2023-05-12T07:28:34.783Z,25.55
2023-05-12T07:29:34.714Z,25.42
2023-05-12T07:30:34.716Z,25.40
2023-05-12T07:31:35.594Z,25.51
2023-05-12T07:32:34.777Z,25.63
2023-05-12T07:33:34.778Z,25.58
2023-05-12T07:34:34.798Z,25.69
2023-05-12T07:35:34.786Z,25.70
2023-05-12T07:36:34.844Z,25.95
2023-05-12T07:37:34.822Z,26.11
2023-05-12T07:38:35.033Z,26.63
2023-05-12T07:39:34.886Z,26.88
2023-05-12T07:40:34.934Z,27.14
2023-05-12T07:41:34.939Z,27.38
2023-05-12T07:42:34.989Z,27.74
2023-05-12T07:43:35.034Z,27.75
2023-05-12T07:44:35.040Z,27.80
2023-05-12T07:45:34.998Z,27.82
2023-05-12T07:46:35.038Z,27.87
2023-05-12T07:47:35.078Z,27.94
2023-05-12T07:48:35.038Z,27.99
2023-05-12T07:49:35.027Z,27.89
2023-05-12T07:50:35.072Z,27.97
2023-05-12T07:51:35.032Z,27.91
2023-05-12T07:52:35.098Z,27.90
2023-05-12T07:53:35.141Z,27.93
2023-05-12T07:54:35.178Z,27.91
2023-05-12T07:55:35.235Z,27.96
2023-05-12T07:56:35.312Z,28.00
2023-05-12T07:57:35.367Z,28.01
2023-05-12T07:58:35.446Z,28.05
2023-05-12T07:59:35.473Z,28.03
2023-05-12T08:00:35.519Z,28.15
2023-05-12T08:01:35.578Z,28.16
2023-05-12T08:02:35.631Z,28.14
2023-05-12T08:03:35.711Z,28.33
2023-05-12T08:04:35.659Z,28.35
2023-05-12T08:05:35.591Z,28.41
2023-05-12T08:06:35.592Z,28.34
2023-05-12T08:07:35.594Z,28.31
2023-05-12T08:08:35.632Z,28.37
2023-05-12T08:09:35.596Z,28.33
2023-05-12T08:10:35.606Z,28.45
2023-05-12T08:11:35.602Z,28.39
2023-05-12T08:12:35.610Z,28.40
2023-05-12T08:13:35.625Z,28.43
2023-05-12T08:14:35.597Z,28.43
2023-05-12T08:15:35.602Z,28.46
2023-05-12T08:16:35.680Z,28.51
2023-05-12T08:17:35.636Z,28.46
2023-05-12T08:18:35.643Z,28.50
2023-05-12T08:19:35.622Z,28.57
2023-05-12T08:20:35.600Z,28.60
2023-05-12T08:21:35.622Z,28.56
2023-05-12T08:22:35.592Z,28.67
2023-05-12T08:23:35.592Z,28.59
2023-05-12T08:24:35.599Z,28.69
2023-05-12T08:25:35.586Z,28.76
2023-05-12T08:26:35.622Z,28.79
2023-05-12T08:27:35.583Z,28.85
2023-05-12T08:28:35.591Z,28.92
2023-05-12T08:29:35.570Z,28.91
2023-05-12T08:30:37.542Z,28.96
2023-05-12T08:31:35.591Z,29.00
2023-05-12T08:32:35.602Z,28.83
2023-05-12T08:33:35.575Z,28.59
2023-05-12T08:34:35.553Z,28.52
2023-05-12T08:35:35.570Z,28.40
2023-05-12T08:36:35.568Z,28.28
2023-05-12T08:37:35.554Z,28.19
2023-05-12T08:38:35.585Z,28.04
2023-05-12T08:39:35.559Z,27.87
2023-05-12T08:40:35.560Z,27.78
2023-05-12T08:41:35.542Z,27.68
2023-05-12T08:42:35.588Z,27.53
2023-05-12T08:43:35.565Z,27.41
2023-05-12T08:44:35.637Z,27.32
2023-05-12T08:45:35.694Z,27.24
2023-05-12T08:46:35.799Z,27.15
2023-05-12T08:47:35.773Z,27.11
2023-05-12T08:48:35.828Z,27.01
2023-05-12T08:49:35.843Z,26.99
2023-05-12T08:50:35.852Z,26.89
2023-05-12T08:51:35.821Z,26.83
2023-05-12T08:52:35.834Z,26.80
2023-05-12T08:53:35.821Z,26.70
2023-05-12T08:54:42.428Z,26.62
2023-05-12T08:55:36.816Z,26.62
2023-05-12T08:57:36.945Z,26.49
2023-05-12T08:58:41.813Z,26.43
2023-05-12T08:59:36.787Z,26.47
2023-05-12T09:00:35.808Z,26.40
2023-05-12T09:01:36.926Z,26.39
2023-05-12T09:02:48.775Z,26.39
2023-05-12T09:03:36.845Z,26.31
2023-05-12T09:04:35.889Z,26.33
2023-05-12T09:05:36.502Z,26.28
2023-05-12T09:06:35.798Z,26.27
2023-05-12T09:07:35.772Z,26.31
2023-05-12T09:08:35.778Z,26.19
2023-05-12T09:09:35.762Z,26.28
2023-05-12T09:10:36.013Z,26.19
2023-05-12T09:11:35.783Z,26.22
2023-05-12T09:12:35.812Z,26.16
2023-05-12T09:13:35.769Z,26.19
2023-05-12T09:14:35.771Z,26.19
2023-05-12T09:15:35.761Z,26.21
2023-05-12T09:16:35.851Z,26.18
2023-05-12T09:17:35.758Z,26.19
2023-05-12T09:18:35.768Z,26.17
2023-05-12T09:19:35.733Z,26.17
2023-05-12T09:20:35.746Z,26.19
2023-05-12T09:21:35.758Z,26.16
2023-05-12T09:22:35.736Z,26.17
2023-05-12T09:23:35.760Z,26.12
2023-05-12T09:24:35.754Z,26.17
2023-05-12T09:25:35.764Z,26.18
2023-05-12T09:26:35.835Z,26.17
2023-05-12T09:27:35.809Z,26.23
2023-05-12T09:28:35.818Z,26.18
2023-05-12T09:29:39.847Z,26.23
2023-05-12T09:30:37.002Z,26.20
2023-05-12T09:31:36.024Z,26.20
2023-05-12T09:32:35.876Z,26.22
2023-05-12T09:33:35.831Z,26.23
2023-05-12T09:34:35.835Z,26.28
2023-05-12T09:35:35.825Z,26.25
2023-05-12T09:36:35.825Z,26.29
2023-05-12T09:37:35.833Z,26.34
2023-05-12T09:38:35.819Z,26.31
2023-05-12T09:39:35.797Z,26.37
2023-05-12T09:40:35.813Z,26.28
2023-05-12T09:41:35.798Z,26.50
2023-05-12T09:42:35.795Z,27.14
2023-05-12T09:43:35.795Z,27.57
2023-05-12T09:44:35.792Z,27.19
2023-05-12T09:45:35.830Z,27.15
2023-05-12T09:46:35.796Z,26.94
2023-05-12T09:47:35.839Z,27.37
2023-05-12T09:48:36.033Z,27.17
2023-05-12T09:49:35.794Z,26.95
2023-05-12T09:50:46.509Z,26.98
2023-05-12T09:51:36.763Z,26.89
2023-05-12T09:52:35.780Z,27.08
2023-05-12T09:53:35.777Z,26.69
2023-05-12T09:54:35.781Z,26.58
2023-05-12T09:55:35.789Z,26.45
2023-05-12T09:56:35.780Z,26.41
2023-05-12T09:57:35.815Z,26.35
2023-05-12T09:58:35.804Z,26.37
2023-05-12T09:59:35.787Z,26.36
2023-05-12T10:00:55.113Z,26.83
2023-05-12T10:01:36.859Z,26.45
2023-05-12T10:02:35.923Z,26.33
2023-05-12T10:03:35.813Z,26.39
2023-05-12T10:04:35.931Z,26.27
2023-05-12T10:05:35.782Z,26.12
2023-05-12T10:06:35.795Z,26.12
2023-05-12T10:07:35.801Z,26.25
2023-05-12T10:08:35.807Z,26.20
2023-05-12T10:09:35.806Z,26.17
2023-05-12T10:10:35.830Z,26.21
2023-05-12T10:11:35.893Z,26.27
2023-05-12T10:12:35.948Z,26.12
2023-05-12T10:13:36.030Z,26.08
2023-05-12T10:14:36.113Z,26.05
2023-05-12T10:15:36.172Z,25.88
2023-05-12T10:16:36.266Z,25.97
2023-05-12T10:17:36.337Z,26.08
2023-05-12T10:18:36.502Z,26.06
2023-05-12T10:19:36.483Z,26.00
2023-05-12T10:20:36.534Z,25.95
2023-05-12T10:21:36.629Z,25.96
2023-05-12T10:22:36.695Z,26.07
2023-05-12T10:23:37.992Z,26.15
2023-05-12T10:24:36.838Z,25.90
2023-05-12T10:25:36.820Z,25.90
2023-05-12T10:26:36.840Z,26.04
2023-05-12T10:27:36.823Z,26.02
2023-05-12T10:28:36.822Z,26.00
2023-05-12T10:29:36.845Z,26.04
2023-05-12T10:30:36.896Z,25.98
2023-05-12T10:31:36.852Z,25.86
2023-05-12T10:32:36.893Z,25.69
2023-05-12T10:33:36.874Z,25.86
2023-05-12T10:34:37.043Z,25.74
2023-05-12T10:35:36.951Z,25.92
2023-05-12T10:36:37.039Z,26.13
2023-05-12T10:37:37.096Z,26.36
2023-05-12T10:38:37.171Z,26.01
2023-05-12T10:39:37.234Z,26.08
2023-05-12T10:40:37.239Z,26.05
2023-05-12T10:41:37.265Z,26.30
2023-05-12T10:42:37.303Z,26.75
2023-05-12T10:43:37.348Z,27.02
2023-05-12T10:44:37.594Z,27.21
2023-05-12T10:45:37.570Z,27.32
2023-05-12T10:46:37.579Z,27.38
2023-05-12T10:47:37.533Z,27.59
2023-05-12T10:48:37.508Z,27.86
2023-05-12T10:49:37.583Z,28.01
2023-05-12T10:50:37.666Z,27.89
2023-05-12T10:51:37.508Z,28.08
2023-05-12T10:52:37.577Z,28.32
2023-05-12T10:53:48.712Z,28.33
2023-05-12T10:54:38.495Z,28.52
2023-05-12T10:55:37.562Z,28.60
2023-05-12T10:56:37.917Z,28.62
2023-05-12T10:57:37.818Z,28.71
2023-05-12T10:58:38.241Z,28.84
2023-05-12T10:59:37.969Z,28.84
2023-05-12T11:00:38.044Z,29.45
2023-05-12T11:01:38.003Z,29.59
2023-05-12T11:02:38.412Z,29.60
2023-05-12T11:03:38.492Z,29.74
2023-05-12T11:04:37.737Z,29.79
2023-05-12T11:05:37.874Z,29.83
2023-05-12T11:06:37.832Z,29.89
2023-05-12T11:07:37.977Z,29.82
2023-05-12T11:08:37.897Z,29.90
2023-05-12T11:09:43.272Z,29.97
2023-05-12T11:10:39.660Z,29.94
2023-05-12T11:11:38.447Z,29.91
2023-05-12T11:12:37.671Z,29.84
2023-05-12T11:13:37.515Z,29.84
2023-05-12T11:14:37.637Z,29.82
2023-05-12T11:15:37.536Z,29.74
2023-05-12T11:16:38.089Z,29.74
2023-05-12T11:17:37.642Z,29.73
2023-05-12T11:18:37.716Z,29.77
2023-05-12T11:19:37.659Z,29.82
2023-05-12T11:20:37.546Z,29.70
2023-05-12T11:21:37.663Z,29.82
2023-05-12T11:22:37.621Z,29.87
2023-05-12T11:23:37.684Z,29.97
2023-05-12T11:24:37.722Z,30.14
2023-05-12T11:25:37.955Z,29.99
2023-05-12T11:26:37.910Z,29.80
2023-05-12T11:27:37.999Z,29.89
2023-05-12T11:28:37.941Z,29.89
2023-05-12T11:29:38.171Z,29.73
2023-05-12T11:30:38.057Z,29.57
2023-05-12T11:31:38.179Z,29.45
2023-05-12T11:32:38.291Z,29.35
2023-05-12T11:33:38.212Z,29.21
2023-05-12T11:34:38.281Z,29.06
2023-05-12T11:35:38.325Z,28.96
2023-05-12T11:36:38.388Z,28.89
2023-05-12T11:37:53.059Z,29.04
2023-05-12T11:38:38.692Z,29.11
2023-05-12T11:39:38.743Z,29.10
2023-05-12T11:40:38.804Z,28.99
2023-05-12T11:41:38.880Z,28.88
2023-05-12T11:42:38.933Z,28.75
2023-05-12T11:43:38.991Z,28.69
2023-05-12T11:44:39.049Z,28.50
2023-05-12T11:45:39.141Z,28.44
2023-05-12T11:46:39.156Z,28.33
2023-05-12T11:47:39.221Z,28.29
2023-05-12T11:48:39.279Z,28.26
2023-05-12T11:49:39.326Z,28.26
2023-05-12T11:50:39.378Z,28.11
2023-05-12T11:51:39.422Z,28.05
2023-05-12T11:52:39.508Z,27.95
2023-05-12T11:53:39.572Z,27.90
2023-05-12T11:54:39.612Z,27.80
2023-05-12T11:55:39.674Z,27.73
2023-05-12T11:56:39.731Z,27.67
2023-05-12T11:57:39.795Z,27.52
2023-05-12T11:58:39.847Z,27.46
2023-05-12T11:59:39.909Z,27.43
2023-05-12T12:00:39.939Z,27.40
2023-05-12T12:01:40.021Z,27.32
2023-05-12T12:02:40.179Z,27.37
2023-05-12T12:03:40.225Z,27.53
2023-05-12T12:04:40.371Z,27.89
2023-05-12T12:05:40.260Z,27.86
2023-05-12T12:06:40.290Z,28.05
2023-05-12T12:07:40.354Z,27.85
2023-05-12T12:08:40.423Z,27.71
2023-05-12T12:09:40.503Z,27.63
2023-05-12T12:10:40.540Z,27.49
2023-05-12T12:11:40.609Z,27.39
2023-05-12T12:12:40.695Z,27.36
2023-05-12T12:13:40.714Z,27.28
2023-05-12T12:14:40.778Z,27.17
2023-05-12T12:15:40.892Z,27.03
2023-05-12T12:16:40.899Z,26.93
2023-05-12T12:17:40.994Z,26.82
2023-05-12T12:18:41.007Z,26.74
2023-05-12T12:19:41.057Z,26.71
2023-05-12T12:20:41.096Z,26.66
2023-05-12T12:21:41.091Z,26.57
2023-05-12T12:22:41.071Z,26.55
2023-05-12T12:23:50.908Z,26.45
2023-05-12T12:24:42.062Z,26.49
2023-05-12T12:25:41.077Z,26.41
2023-05-12T12:26:41.060Z,26.39
2023-05-12T12:27:41.050Z,26.35
2023-05-12T12:28:41.072Z,26.25
2023-05-12T12:29:41.042Z,26.24
2023-05-12T12:30:41.045Z,26.21
2023-05-12T12:31:41.017Z,26.15
2023-05-12T12:32:41.045Z,26.15
2023-05-12T12:33:41.083Z,26.07
2023-05-12T12:34:41.113Z,26.09
2023-05-12T12:35:41.159Z,26.08
2023-05-12T12:36:41.219Z,26.14
2023-05-12T12:37:41.286Z,26.11
2023-05-12T12:38:41.392Z,26.15
2023-05-12T12:39:41.343Z,26.18
2023-05-12T12:40:41.334Z,26.18
2023-05-12T12:41:41.456Z,26.17
2023-05-12T12:42:41.306Z,26.23
2023-05-12T12:43:41.300Z,26.17
2023-05-12T12:44:41.312Z,26.14
2023-05-12T12:45:41.334Z,26.12
2023-05-12T12:46:41.327Z,26.21
2023-05-12T12:47:41.292Z,26.21
2023-05-12T12:48:41.352Z,26.23
2023-05-12T12:49:41.312Z,26.18
2023-05-12T12:50:41.288Z,26.20
2023-05-12T12:51:46.317Z,26.23
2023-05-12T12:52:42.265Z,26.27
2023-05-12T12:53:41.254Z,26.26
2023-05-12T12:54:41.292Z,26.26
2023-05-12T12:55:41.233Z,26.28
2023-05-12T12:56:41.217Z,26.27